Time;durP1;ratioP1;P1;durP2;ratioP2;P2;SDS_P1;SDS_P2;PMS_P1;PMS_P2;Temp;Humidity;BMP_temperature;BMP_pressure;BME280_temperature;BME280_humidity;BME280_pressure;Samples;Min_cycle;Max_cycle;Signal;HPM_P1;HPM_P2
2021/12/14 00:00:12;;;;;;;17.70;12.93;;;;;;;7.79;100.00;102233.53;5017989;28;20236;-55
2021/12/14 00:02:40;;;;;;;17.50;13.03;;;;;;;7.77;100.00;102232.59;5016946;28;20233;-57
2021/12/14 00:05:10;;;;;;;16.57;13.43;;;;;;;7.76;100.00;102233.44;5022513;28;20224;-57
2021/12/14 00:07:36;;;;;;;21.50;13.50;;;;;;;7.78;100.00;102242.22;5019961;28;20292;-56
2021/12/14 00:10:14;;;;;;;16.53;12.57;;;;;;;7.75;100.00;102232.53;5020199;28;20236;-58
2021/12/14 00:12:54;;;;;;;17.03;13.00;;;;;;;7.77;100.00;102237.84;5020036;28;20241;-56
2021/12/14 00:15:21;;;;;;;18.40;12.23;;;;;;;7.85;100.00;102234.63;5010569;28;20245;-56
2021/12/14 00:17:50;;;;;;;16.90;12.57;;;;;;;7.78;100.00;102236.97;5024705;28;20236;-57
2021/12/14 00:20:21;;;;;;;18.07;12.80;;;;;;;7.86;100.00;102240.75;5027633;28;20264;-57
2021/12/14 00:25:35;;;;;;;15.23;11.17;;;;;;;7.82;100.00;102233.63;5026881;28;20305;-57
2021/12/14 00:28:06;;;;;;;17.73;12.17;;;;;;;7.82;100.00;102233.63;5028112;28;20233;-57
2021/12/14 00:30:35;;;;;;;18.60;11.40;;;;;;;7.84;100.00;102229.34;5022623;28;20263;-56
2021/12/14 00:33:02;;;;;;;16.43;12.47;;;;;;;7.73;100.00;102233.34;5026803;28;20316;-57
2021/12/14 00:35:30;;;;;;;17.93;12.10;;;;;;;7.73;100.00;102235.94;5023700;28;20791;-57
2021/12/14 00:37:58;;;;;;;16.13;12.17;;;;;;;7.72;100.00;102229.84;5024302;28;20298;-56
2021/12/14 00:40:29;;;;;;;17.33;13.07;;;;;;;7.83;100.00;102224.97;5026459;28;20233;-57
2021/12/14 00:42:57;;;;;;;15.43;12.40;;;;;;;7.76;100.00;102233.44;5022817;28;20257;-56
2021/12/14 00:45:26;;;;;;;14.40;11.37;;;;;;;7.77;100.00;102233.47;5025312;28;21110;-56
2021/12/14 00:47:53;;;;;;;14.67;12.17;;;;;;;7.71;100.00;102242.84;5019124;28;20240;-56
2021/12/14 00:50:21;;;;;;;13.67;10.53;;;;;;;7.74;100.00;102235.09;5024753;28;20252;-57
2021/12/14 00:52:49;;;;;;;15.43;12.20;;;;;;;7.75;100.00;102234.25;5006668;28;20740;-55
2021/12/14 00:55:18;;;;;;;19.03;12.93;;;;;;;7.69;100.00;102234.03;5021533;28;20728;-54
2021/12/14 00:57:45;;;;;;;18.13;11.63;;;;;;;7.68;100.00;102238.38;5018778;28;20233;-55
2021/12/14 01:00:15;;;;;;;14.47;12.13;;;;;;;7.67;100.00;102234.00;5020744;28;20264;-57
2021/12/14 01:02:42;;;;;;;13.37;11.43;;;;;;;7.75;100.00;102227.31;5016711;28;20232;-56
2021/12/14 01:05:12;;;;;;;15.07;11.73;;;;;;;7.77;100.00;102230.88;5018299;28;20290;-55
2021/12/14 01:07:38;;;;;;;15.33;11.07;;;;;;;7.74;100.00;102228.16;5017688;28;20233;-55
2021/12/14 01:10:10;;;;;;;14.40;11.83;;;;;;;7.69;100.00;102228.81;5017186;28;20224;-57
2021/12/14 01:12:43;;;;;;;15.67;12.00;;;;;;;7.73;100.00;102233.34;5019090;28;20236;-56
2021/12/14 01:15:24;;;;;;;16.23;12.37;;;;;;;7.69;100.00;102228.81;5019874;28;20344;-55
2021/12/14 01:18:01;;;;;;;15.03;11.70;;;;;;;7.76;100.00;102230.84;5018492;28;20224;-55
2021/12/14 01:20:36;;;;;;;17.43;11.67;;;;;;;7.81;100.00;102231.88;5020223;28;20245;-55
2021/12/14 01:23:13;;;;;;;16.40;12.67;;;;;;;7.77;100.00;102229.97;5018570;28;20231;-55
2021/12/14 01:25:42;;;;;;;17.50;11.07;;;;;;;7.74;100.00;102227.25;5014716;28;20717;-57
2021/12/14 01:28:11;;;;;;;12.70;10.53;;;;;;;7.85;100.00;102233.75;5017586;28;20229;-54
2021/12/14 01:30:43;;;;;;;15.20;11.33;;;;;;;7.75;100.00;102231.66;5010482;28;20779;-55
2021/12/14 01:33:13;;;;;;;12.97;10.70;;;;;;;7.82;100.00;102228.41;5023201;28;20237;-55
2021/12/14 01:35:41;;;;;;;12.90;10.03;;;;;;;7.71;100.00;102233.25;5022854;28;20240;-57
2021/12/14 01:38:21;;;;;;;12.10;9.70;;;;;;;7.72;100.00;102224.59;5023129;28;20232;-58
2021/12/14 01:40:55;;;;;;;21.60;10.90;;;;;;;7.68;100.00;102224.44;5022565;28;20824;-56
2021/12/14 01:43:25;;;;;;;14.93;10.60;;;;;;;7.71;100.00;102224.53;5013322;28;20228;-56
2021/12/14 01:45:51;;;;;;;14.43;10.93;;;;;;;7.74;100.00;102229.88;5021570;28;20257;-56
2021/12/14 01:48:18;;;;;;;12.83;10.10;;;;;;;7.81;100.00;102221.41;5024753;28;20245;-55
2021/12/14 01:50:47;;;;;;;12.13;9.90;;;;;;;7.83;100.00;102219.75;5021996;28;20742;-56
2021/12/14 01:53:16;;;;;;;11.77;9.43;;;;;;;7.82;100.00;102212.72;5015801;28;20336;-55
2021/12/14 01:55:50;;;;;;;12.03;9.37;;;;;;;7.83;100.00;102211.91;5017104;28;20237;-56
2021/12/14 01:58:19;;;;;;;11.07;9.70;;;;;;;7.95;100.00;102214.91;5021777;28;20287;-56
2021/12/14 02:00:50;;;;;;;12.43;10.00;;;;;;;7.92;100.00;102214.81;5017772;28;20229;-57
2021/12/14 02:03:17;;;;;;;13.50;10.17;;;;;;;8.00;100.00;102212.44;5020319;28;20283;-56
2021/12/14 02:05:47;;;;;;;9.90;8.50;;;;;;;7.88;100.00;102207.69;5023163;28;20313;-56
2021/12/14 02:08:16;;;;;;;12.07;9.77;;;;;;;7.82;100.00;102210.97;5018942;28;20248;-56
2021/12/14 02:10:43;;;;;;;13.03;9.70;;;;;;;7.73;100.00;102202.84;5006412;28;20232;-56
2021/12/14 02:13:09;;;;;;;10.23;8.80;;;;;;;7.72;100.00;102195.84;5023935;28;21766;-56
2021/12/14 02:15:41;;;;;;;9.07;8.13;;;;;;;7.76;100.00;102197.72;5018203;28;20652;-57
2021/12/14 02:18:11;;;;;;;16.23;8.20;;;;;;;7.71;100.00;102198.41;5022014;28;20732;-56
2021/12/14 02:20:39;;;;;;;13.37;8.90;;;;;;;7.80;100.00;102198.72;5015855;28;20261;-55
2021/12/14 02:23:09;;;;;;;13.70;8.53;;;;;;;7.74;100.00;102190.66;5023415;28;20676;-56
2021/12/14 02:25:36;;;;;;;10.37;7.97;;;;;;;7.81;100.00;102184.81;5015699;28;20292;-57
2021/12/14 02:28:05;;;;;;;9.13;8.07;;;;;;;7.73;100.00;102181.06;5018649;28;20229;-54
2021/12/14 02:30:32;;;;;;;10.80;8.03;;;;;;;7.86;100.00;102185.81;5023031;28;20286;-56
2021/12/14 02:33:13;;;;;;;11.00;7.97;;;;;;;7.83;100.00;102185.75;5019977;28;20228;-55
2021/12/14 02:35:40;;;;;;;8.67;7.73;;;;;;;7.82;100.00;102186.56;5021630;28;20276;-56
2021/12/14 02:38:11;;;;;;;10.03;7.90;;;;;;;7.79;100.00;102181.22;5023249;28;20234;-55
2021/12/14 02:40:57;;;;;;;9.23;7.43;;;;;;;7.81;100.00;102190.03;5017074;28;20236;-56
2021/12/14 02:43:27;;;;;;;8.80;7.90;;;;;;;7.78;100.00;102187.31;5022655;28;20224;-55
2021/12/14 02:45:56;;;;;;;9.10;8.20;;;;;;;7.72;100.00;102176.63;5021770;28;20310;-56
2021/12/14 02:48:24;;;;;;;11.13;8.67;;;;;;;7.71;100.00;102182.72;5020466;28;22524;-55
2021/12/14 02:50:50;;;;;;;11.60;7.83;;;;;;;7.75;100.00;102177.63;5022444;28;20228;-57
2021/12/14 02:53:18;;;;;;;11.93;7.70;;;;;;;7.80;100.00;102183.03;5021906;28;20256;-55
2021/12/14 02:55:44;;;;;;;9.97;8.43;;;;;;;7.69;100.00;102181.75;5020325;28;20260;-56
2021/12/14 02:58:11;;;;;;;12.20;7.93;;;;;;;7.69;100.00;102173.91;5023358;28;20614;-57
2021/12/14 03:00:42;;;;;;;9.07;7.50;;;;;;;7.65;100.00;102173.84;5023399;28;20291;-55
2021/12/14 03:03:10;;;;;;;9.17;7.87;;;;;;;7.61;100.00;102165.81;5021786;28;20338;-56
2021/12/14 03:05:39;;;;;;;10.57;8.83;;;;;;;7.53;100.00;102164.69;5015879;28;20236;-56
2021/12/14 03:08:09;;;;;;;9.87;8.83;;;;;;;7.69;100.00;102166.06;5015989;28;20283;-56
2021/12/14 03:10:53;;;;;;;11.20;7.73;;;;;;;7.56;100.00;102163.06;5022847;28;20260;-57
2021/12/14 03:13:20;;;;;;;8.90;7.90;;;;;;;7.54;100.00;102159.50;5021411;28;20232;-56
2021/12/14 03:15:52;;;;;;;9.97;7.47;;;;;;;7.57;100.00;102163.94;5020650;28;20717;-56
2021/12/14 03:18:24;;;;;;;8.97;7.03;;;;;;;7.52;100.00;102161.19;5022758;28;20335;-56
2021/12/14 03:20:54;;;;;;;10.63;7.73;;;;;;;7.56;100.00;102156.94;5020844;28;20856;-55
2021/12/14 03:23:22;;;;;;;9.47;7.90;;;;;;;7.51;100.00;102162.03;5020883;28;20865;-57
2021/12/14 03:25:53;;;;;;;9.03;7.83;;;;;;;7.60;100.00;102158.81;5019876;28;20332;-54
2021/12/14 03:28:21;;;;;;;12.33;7.53;;;;;;;7.54;100.00;102154.25;5023049;28;20259;-56
2021/12/14 03:30:57;;;;;;;11.87;8.00;;;;;;;7.55;100.00;102156.06;5011725;28;21048;-56
2021/12/14 03:33:27;;;;;;;11.00;8.30;;;;;;;7.58;100.00;102155.25;5017048;28;21025;-57
2021/12/14 03:35:58;;;;;;;9.40;7.47;;;;;;;7.70;100.00;102154.81;5006145;28;20232;-56
2021/12/14 03:38:28;;;;;;;8.90;7.20;;;;;;;7.60;100.00;102151.88;5013311;28;20252;-56
2021/12/14 03:40:58;;;;;;;12.63;7.63;;;;;;;7.56;100.00;102146.50;5012818;28;20326;-57
2021/12/14 03:43:25;;;;;;;11.90;8.00;;;;;;;7.56;100.00;102147.38;5019922;28;20259;-56
2021/12/14 03:45:52;;;;;;;13.10;9.73;;;;;;;7.51;100.00;102141.13;5013556;28;20228;-57
2021/12/14 03:48:21;;;;;;;9.33;7.33;;;;;;;7.61;100.00;102145.78;5018316;28;20306;-56
2021/12/14 03:50:47;;;;;;;9.57;7.90;;;;;;;7.56;100.00;102144.75;5022261;28;20278;-56
2021/12/14 03:53:14;;;;;;;9.37;7.97;;;;;;;7.55;100.00;102144.72;5017769;28;20252;-56
2021/12/14 03:55:43;;;;;;;10.83;7.53;;;;;;;7.47;100.00;102135.72;5015598;28;21023;-56
2021/12/14 03:58:13;;;;;;;10.97;7.80;;;;;;;7.50;100.00;102126.25;5024178;28;20314;-56
2021/12/14 04:00:43;;;;;;;11.23;8.27;;;;;;;7.43;100.00;102124.25;5022655;28;20784;-55
2021/12/14 04:03:12;;;;;;;11.00;8.03;;;;;;;7.49;100.00;102119.25;5023396;28;20252;-56
2021/12/14 04:05:40;;;;;;;11.07;7.90;;;;;;;7.43;100.00;102123.38;5023590;28;20243;-55
2021/12/14 04:08:07;;;;;;;9.93;8.00;;;;;;;7.50;100.00;102114.91;5023248;28;20221;-56
2021/12/14 04:10:35;;;;;;;11.47;7.87;;;;;;;7.52;100.00;102114.13;5026033;28;20363;-55
2021/12/14 04:13:02;;;;;;;12.73;8.30;;;;;;;7.46;100.00;102107.81;5025525;28;20784;-56
2021/12/14 04:15:30;;;;;;;10.13;8.67;;;;;;;7.54;100.00;102102.00;5024848;28;20756;-55
2021/12/14 04:17:57;;;;;;;11.37;8.20;;;;;;;7.40;100.00;102087.59;5013620;28;20331;-55
2021/12/14 04:20:26;;;;;;;12.00;8.33;;;;;;;7.44;100.00;102091.19;5024487;28;20263;-55
2021/12/14 04:22:53;;;;;;;11.33;8.50;;;;;;;7.32;100.00;102084.72;5018655;28;20284;-55
2021/12/14 04:25:22;;;;;;;12.03;9.10;;;;;;;7.35;100.00;102084.81;5017801;28;20279;-56
2021/12/14 04:27:50;;;;;;;9.60;7.47;;;;;;;7.39;100.00;102076.25;5013526;28;20229;-56
2021/12/14 04:30:19;;;;;;;9.40;7.23;;;;;;;7.38;100.00;102073.59;5018229;28;20303;-56
2021/12/14 04:32:48;;;;;;;10.70;7.93;;;;;;;7.37;100.00;102074.41;5019621;28;20252;-55
2021/12/14 04:35:15;;;;;;;12.23;8.37;;;;;;;7.46;100.00;102081.69;5020795;28;20252;-55
2021/12/14 04:37:43;;;;;;;11.77;8.80;;;;;;;7.49;100.00;102077.44;5020446;28;20244;-55
2021/12/14 04:40:21;;;;;;;11.33;7.63;;;;;;;7.45;100.00;102062.50;5022656;28;20228;-54
2021/12/14 04:53:49;;;;;;;11.77;8.57;;;;;;;7.40;100.00;102085.84;5020218;28;20236;-55
2021/12/14 04:56:19;;;;;;;10.90;8.67;;;;;;;7.43;100.00;102082.47;5023079;28;20229;-55
2021/12/14 04:58:49;;;;;;;11.80;8.23;;;;;;;7.46;100.00;102071.22;5022630;28;20946;-55
2021/12/14 05:01:17;;;;;;;10.80;8.43;;;;;;;7.39;100.00;102075.38;5022801;28;20264;-52
2021/12/14 05:03:49;;;;;;;11.67;7.70;;;;;;;7.37;100.00;102085.78;5022179;28;20306;-55
2021/12/14 05:06:17;;;;;;;13.13;8.43;;;;;;;7.35;100.00;102090.03;5024890;28;20260;-55
2021/12/14 05:11:30;;;;;;;9.87;8.10;;;;;;;7.52;100.00;102098.47;5021896;28;20239;-53
2021/12/14 05:14:03;;;;;;;11.20;8.03;;;;;;;7.39;100.00;102097.16;5015551;28;20252;-54
2021/12/14 05:16:30;;;;;;;12.83;9.80;;;;;;;7.42;100.00;102101.59;5014300;28;20278;-55
2021/12/14 05:19:01;;;;;;;10.90;7.70;;;;;;;7.37;100.00;102108.38;5015893;28;20246;-55
2021/12/14 05:21:31;;;;;;;12.83;8.53;;;;;;;7.44;100.00;102112.09;5014260;28;20318;-54
2021/12/14 05:23:58;;;;;;;11.43;7.60;;;;;;;7.37;100.00;102117.13;5021503;28;20224;-55
2021/12/14 05:26:25;;;;;;;11.30;8.67;;;;;;;7.44;100.00;102120.84;5025939;28;20844;-57
2021/12/14 05:28:51;;;;;;;12.13;8.33;;;;;;;7.37;100.00;102118.81;5022647;28;20283;-55
2021/12/14 05:31:17;;;;;;;11.47;8.23;;;;;;;7.39;100.00;102111.94;5023486;28;20239;-55
2021/12/14 05:33:44;;;;;;;12.73;8.70;;;;;;;7.49;100.00;102124.47;5024668;28;20256;-55
2021/12/14 05:36:15;;;;;;;11.77;8.00;;;;;;;7.51;100.00;102112.38;5019320;22;20265;-50
2021/12/14 05:38:52;;;;;;;11.70;7.87;;;;;;;7.39;100.00;102117.16;5000167;28;20241;-50
2021/12/14 05:44:05;;;;;;;13.80;8.57;;;;;;;7.41;100.00;102115.50;5000409;28;20262;-51
2021/12/14 05:46:33;;;;;;;11.30;8.10;;;;;;;7.47;100.00;102117.41;4992778;28;20300;-49
2021/12/14 05:49:02;;;;;;;12.70;9.33;;;;;;;7.33;100.00;102111.72;4990450;28;20714;-50
2021/12/14 05:51:30;;;;;;;11.43;8.33;;;;;;;7.39;100.00;102111.94;4981337;28;20254;-49
2021/12/14 05:53:58;;;;;;;9.83;7.70;;;;;;;7.30;100.00;102111.63;4975074;28;20234;-52
2021/12/14 05:56:27;;;;;;;12.00;7.97;;;;;;;7.39;100.00;102111.94;4981085;28;20264;-51
2021/12/14 05:58:58;;;;;;;11.10;7.77;;;;;;;7.38;100.00;102105.84;4978684;28;20797;-52
2021/12/14 06:01:27;;;;;;;10.93;8.00;;;;;;;7.32;100.00;102109.97;4992235;28;20915;-50
2021/12/14 06:03:56;;;;;;;10.70;9.17;;;;;;;7.43;100.00;102103.38;4979948;28;20245;-50
2021/12/14 06:06:27;;;;;;;10.07;7.90;;;;;;;7.33;100.00;102103.88;4988628;28;20250;-51
2021/12/14 06:09:05;;;;;;;10.47;7.80;;;;;;;7.30;100.00;102106.38;4979474;28;20225;-51
2021/12/14 06:11:31;;;;;;;9.63;7.63;;;;;;;7.31;100.00;102108.19;4986784;28;20280;-51
2021/12/14 06:13:58;;;;;;;9.40;7.73;;;;;;;7.30;100.00;102109.00;4995498;28;20304;-52
2021/12/14 06:16:26;;;;;;;10.37;7.77;;;;;;;7.31;100.00;102108.19;4998265;28;20246;-50
2021/12/14 06:18:53;;;;;;;9.87;7.60;;;;;;;7.29;100.00;102102.00;4984902;28;20230;-50
2021/12/14 06:21:29;;;;;;;14.53;8.27;;;;;;;7.32;100.00;102099.50;4994178;28;20234;-51
2021/12/14 06:24:03;;;;;;;8.67;6.97;;;;;;;7.25;100.00;102100.13;4999072;28;20222;-51
2021/12/14 06:26:34;;;;;;;12.27;7.50;;;;;;;7.33;100.00;102094.31;4992245;28;20269;-49
2021/12/14 06:29:06;;;;;;;9.93;7.10;;;;;;;7.38;100.00;102089.28;5006197;28;20257;-52
2021/12/14 06:31:32;;;;;;;10.97;8.07;;;;;;;7.37;100.00;102082.25;4994383;28;20265;-50
2021/12/14 06:34:14;;;;;;;8.33;6.87;;;;;;;7.39;100.00;102075.38;4982946;28;20292;-52
2021/12/14 06:37:17;;;;;;;11.37;6.93;;;;;;;7.33;100.00;102081.25;4983272;28;20229;-53
2021/12/14 06:40:02;;;;;;;12.13;8.13;;;;;;;7.24;100.00;102078.34;4993632;28;20316;-52
2021/12/14 06:42:29;;;;;;;10.37;7.60;;;;;;;7.30;100.00;102085.50;4994871;28;20234;-49
2021/12/14 06:45:05;;;;;;;12.10;8.03;;;;;;;7.23;100.00;102080.91;4987201;28;20225;-50
2021/12/14 06:47:32;;;;;;;10.67;7.47;;;;;;;7.18;100.00;102078.13;4995065;28;20361;-50
2021/12/14 06:50:00;;;;;;;12.63;7.77;;;;;;;7.14;100.00;102084.97;4994431;28;20233;-52
2021/12/14 06:52:26;;;;;;;9.27;7.50;;;;;;;7.12;100.00;102089.25;5014255;28;20292;-54
2021/12/14 06:54:52;;;;;;;11.30;8.23;;;;;;;7.19;100.00;102087.72;5016862;28;20234;-53
2021/12/14 06:57:21;;;;;;;11.63;7.80;;;;;;;7.14;100.00;102090.19;5012071;28;20300;-52
2021/12/14 06:59:48;;;;;;;10.63;7.97;;;;;;;7.14;100.00;102079.75;5005256;28;20234;-51
2021/12/14 07:02:14;;;;;;;10.63;8.10;;;;;;;7.13;100.00;102077.97;4992455;28;20246;-52
2021/12/14 07:04:48;;;;;;;9.63;7.57;;;;;;;7.17;100.00;102074.63;4988546;28;20413;-52
2021/12/14 07:07:15;;;;;;;9.50;7.37;;;;;;;7.21;100.00;102078.25;4984143;28;20244;-51
2021/12/14 07:09:43;;;;;;;10.17;7.43;;;;;;;7.13;100.00;102083.22;4987411;28;20234;-52
2021/12/14 07:12:12;;;;;;;10.80;7.70;;;;;;;7.07;100.00;102088.22;4984703;28;20293;-51
2021/12/14 07:14:45;;;;;;;10.53;8.13;;;;;;;7.20;100.00;102094.75;4984777;28;20237;-56
2021/12/14 07:17:15;;;;;;;10.60;7.53;;;;;;;7.22;100.00;102092.19;4980958;28;20257;-51
2021/12/14 07:19:47;;;;;;;9.97;7.93;;;;;;;7.14;100.00;102098.03;4986591;28;20252;-51
2021/12/14 07:22:31;;;;;;;10.13;6.73;;;;;;;7.31;100.00;102108.19;4999468;28;20260;-51
2021/12/14 07:24:59;;;;;;;9.70;7.83;;;;;;;7.16;100.00;102106.81;4977549;28;20310;-51
2021/12/14 07:27:28;;;;;;;9.00;7.40;;;;;;;7.14;100.00;102110.22;4979257;28;20311;-50
2021/12/14 07:30:11;;;;;;;11.70;8.43;;;;;;;7.30;100.00;102114.22;4992908;28;20763;-51
2021/12/14 07:32:41;;;;;;;8.67;7.13;;;;;;;7.29;100.00;102115.06;4990761;28;20229;-51
2021/12/14 07:35:32;;;;;;;10.43;7.53;;;;;;;7.40;100.00;102118.94;4986903;28;20233;-51
2021/12/14 07:38:02;;;;;;;8.07;6.83;;;;;;;7.32;100.00;102112.56;4976815;28;20284;-51
2021/12/14 07:40:36;;;;;;;8.80;7.10;;;;;;;7.32;100.00;102117.78;4983291;28;20234;-52
2021/12/14 07:43:12;;;;;;;8.23;7.20;;;;;;;7.36;100.00;102117.06;4996529;28;20265;-52
2021/12/14 07:45:40;;;;;;;11.87;8.17;;;;;;;7.36;100.00;102122.28;5002602;28;20225;-52
2021/12/14 07:48:06;;;;;;;10.63;7.60;;;;;;;7.37;100.00;102124.06;5006614;28;20237;-51
2021/12/14 07:50:41;;;;;;;8.83;7.77;;;;;;;7.27;100.00;102124.59;5003019;28;20225;-52
2021/12/14 07:53:08;;;;;;;10.30;7.53;;;;;;;7.35;100.00;102123.13;4989119;28;20285;-50
2021/12/14 07:55:43;;;;;;;10.33;7.53;;;;;;;7.31;100.00;102134.31;4986672;28;20830;-50
2021/12/14 07:58:10;;;;;;;11.30;7.23;;;;;;;7.24;100.00;102122.75;4986338;28;20230;-48
2021/12/14 08:00:40;;;;;;;10.10;7.67;;;;;;;7.16;100.00;102130.34;4998165;28;20252;-50
2021/12/14 08:03:09;;;;;;;9.17;7.03;;;;;;;7.18;100.00;102126.03;4992989;28;20230;-51
2021/12/14 08:05:40;;;;;;;9.70;8.00;;;;;;;7.18;100.00;102128.63;4990627;28;20654;-49
2021/12/14 08:08:13;;;;;;;10.93;7.70;;;;;;;7.24;100.00;102122.75;4992200;28;20225;-50
2021/12/14 08:10:46;;;;;;;11.57;7.93;;;;;;;7.15;100.00;102125.91;4984566;28;20236;-49
2021/12/14 08:13:15;;;;;;;9.97;6.40;;;;;;;7.16;100.00;102125.09;4985818;28;20246;-51
2021/12/14 08:15:43;;;;;;;9.93;7.97;;;;;;;7.16;100.00;102130.34;4986093;28;20884;-49
2021/12/14 08:18:14;;;;;;;9.20;7.10;;;;;;;7.18;100.00;102125.16;4986325;28;20681;-50
2021/12/14 08:20:47;;;;;;;9.63;8.07;;;;;;;7.21;100.00;102127.00;5000912;28;20237;-53
2021/12/14 08:23:17;;;;;;;10.63;8.70;;;;;;;7.18;100.00;102131.25;5003974;28;20742;-52
2021/12/14 08:25:44;;;;;;;8.70;7.80;;;;;;;7.21;100.00;102142.66;5002830;28;20233;-51
2021/12/14 08:28:12;;;;;;;10.90;8.87;;;;;;;7.18;100.00;102146.94;5005738;28;20234;-50
2021/12/14 08:30:43;;;;;;;10.93;7.67;;;;;;;7.28;100.00;102155.97;5001215;28;20261;-50
2021/12/14 08:33:19;;;;;;;11.77;7.37;;;;;;;7.34;100.00;102155.31;4998944;28;20225;-50
2021/12/14 08:35:46;;;;;;;9.03;7.37;;;;;;;7.29;100.00;102152.53;5000989;28;20284;-50
2021/12/14 08:38:15;;;;;;;10.33;8.37;;;;;;;7.30;100.00;102150.78;4999747;28;20237;-51
2021/12/14 08:40:45;;;;;;;11.33;8.00;;;;;;;7.34;100.00;102145.75;4999172;28;20242;-50
2021/12/14 08:43:21;;;;;;;9.87;8.07;;;;;;;7.37;100.00;102150.19;4987937;28;20316;-49
2021/12/14 08:45:51;;;;;;;10.07;8.20;;;;;;;7.39;100.00;102161.59;4987829;28;20241;-49
2021/12/14 08:48:22;;;;;;;11.73;7.90;;;;;;;7.40;100.00;102163.34;4986672;28;20807;-51
2021/12/14 08:50:53;;;;;;;10.57;8.47;;;;;;;7.35;100.00;102172.75;4991164;28;20288;-50
2021/12/14 08:53:19;;;;;;;10.10;7.93;;;;;;;7.31;100.00;102163.94;4982525;28;20288;-51
2021/12/14 08:55:49;;;;;;;10.50;8.17;;;;;;;7.35;100.00;102164.94;4978401;28;20306;-52
2021/12/14 08:58:15;;;;;;;11.43;7.63;;;;;;;7.31;100.00;102163.06;4992433;28;20278;-49
2021/12/14 09:00:45;;;;;;;11.03;7.83;;;;;;;7.39;100.00;102156.34;4979030;28;20297;-50
2021/12/14 09:03:15;;;;;;;9.67;8.47;;;;;;;7.41;100.00;102147.75;4992819;28;20736;-49
2021/12/14 09:05:46;;;;;;;12.47;8.23;;;;;;;7.40;100.00;102155.50;4998913;28;20745;-48
2021/12/14 09:08:13;;;;;;;9.47;7.70;;;;;;;7.43;100.00;102139.06;4993251;28;20238;-50
2021/12/14 09:10:41;;;;;;;10.27;8.77;;;;;;;7.26;100.00;102135.84;4991684;28;20749;-51
2021/12/14 09:13:11;;;;;;;11.97;8.57;;;;;;;7.30;100.00;102127.28;4992486;28;20245;-49
2021/12/14 09:15:39;;;;;;;11.27;8.30;;;;;;;7.30;100.00;102132.50;4989909;28;20237;-54
2021/12/14 09:18:06;;;;;;;13.37;9.30;;;;;;;7.26;100.00;102141.97;4996388;28;20750;-50
2021/12/14 09:20:36;;;;;;;11.20;9.43;;;;;;;7.41;100.00;102146.88;4992729;28;20610;-51
2021/12/14 09:23:07;;;;;;;13.00;9.07;;;;;;;7.42;100.00;102143.41;4997202;28;20241;-50
2021/12/14 09:25:33;;;;;;;11.27;7.57;;;;;;;7.33;100.00;102136.13;4985880;28;20591;-48
2021/12/14 09:28:02;;;;;;;9.83;7.90;;;;;;;7.40;100.00;102145.94;4972646;28;20341;-51
2021/12/14 09:30:31;;;;;;;10.87;9.17;;;;;;;7.38;100.00;102141.53;4982478;28;20628;-51
2021/12/14 09:32:58;;;;;;;9.60;8.23;;;;;;;7.46;100.00;102139.16;4993769;28;20264;-50
2021/12/14 09:35:27;;;;;;;8.83;7.73;;;;;;;7.55;100.00;102137.78;4988444;28;20237;-51
2021/12/14 09:37:55;;;;;;;9.43;8.43;;;;;;;7.59;100.00;102138.75;4989535;28;20257;-52
2021/12/14 09:40:26;;;;;;;12.03;8.30;;;;;;;7.53;100.00;102126.34;4986949;28;20285;-50
2021/12/14 09:42:53;;;;;;;10.27;8.17;;;;;;;7.55;100.00;102127.31;4978153;28;20254;-50
2021/12/14 09:45:22;;;;;;;10.47;8.57;;;;;;;7.46;100.00;102123.50;4978028;28;20280;-51
2021/12/14 09:47:48;;;;;;;10.50;8.07;;;;;;;7.45;100.00;102125.22;4966454;28;20238;-51
2021/12/14 09:50:18;;;;;;;9.40;7.57;;;;;;;7.54;100.00;102122.03;4981517;28;20288;-53
2021/12/14 09:52:47;;;;;;;11.73;8.30;;;;;;;7.58;100.00;102130.03;4985328;28;20234;-50
2021/12/14 09:55:18;;;;;;;9.70;8.03;;;;;;;7.50;100.00;102125.38;4985754;28;20750;-52
2021/12/14 09:57:51;;;;;;;9.93;7.93;;;;;;;7.64;100.00;102119.75;4984247;28;20257;-52
2021/12/14 10:00:20;;;;;;;10.07;8.53;;;;;;;7.56;100.00;102126.47;4989156;28;20245;-51
2021/12/14 10:02:47;;;;;;;8.63;7.27;;;;;;;7.52;100.00;102124.59;4989870;28;20663;-50
2021/12/14 10:05:18;;;;;;;10.13;8.97;;;;;;;7.47;100.00;102120.03;4993830;28;20706;-52
2021/12/14 10:07:46;;;;;;;9.20;7.47;;;;;;;7.53;100.00;102115.91;4988534;28;20234;-52
2021/12/14 10:10:17;;;;;;;11.03;8.20;;;;;;;7.53;100.00;102113.28;4988110;28;20238;-52
2021/12/14 10:12:51;;;;;;;9.50;7.60;;;;;;;7.47;100.00;102109.59;4997275;28;20236;-50
2021/12/14 10:15:24;;;;;;;12.17;9.00;;;;;;;7.49;100.00;102108.81;4991700;28;20233;-49
2021/12/14 10:17:53;;;;;;;9.27;7.30;;;;;;;7.58;100.00;102102.97;4981439;28;20229;-53
2021/12/14 10:20:25;;;;;;;11.00;8.83;;;;;;;7.48;99.98;102098.31;4990977;28;20300;-51
2021/12/14 10:22:52;;;;;;;11.00;7.87;;;;;;;7.54;100.00;102096.75;4988720;28;20241;-51
2021/12/14 10:25:21;;;;;;;12.60;8.27;;;;;;;7.51;100.00;102091.47;4987658;28;20663;-51
2021/12/14 10:27:50;;;;;;;11.50;8.43;;;;;;;7.50;99.69;102094.91;4989953;28;20233;-52
2021/12/14 10:30:18;;;;;;;9.00;7.70;;;;;;;7.58;99.92;102083.00;4977741;28;20235;-50
2021/12/14 10:32:44;;;;;;;10.50;8.73;;;;;;;7.54;99.64;102091.53;4984444;28;20792;-52
2021/12/14 10:35:17;;;;;;;10.40;8.47;;;;;;;7.57;99.37;102093.38;4983258;28;20290;-51
2021/12/14 10:37:55;;;;;;;10.97;8.90;;;;;;;7.60;99.14;102096.97;4985866;28;20313;-52
2021/12/14 10:43:12;;;;;;;11.07;9.20;;;;;;;7.80;98.04;102113.31;4961261;28;20329;-51
2021/12/14 10:45:41;;;;;;;10.93;9.03;;;;;;;7.86;98.26;102110.00;4964963;28;20320;-52
2021/12/14 10:48:10;;;;;;;12.80;8.77;;;;;;;7.94;97.28;102105.94;4989076;28;20301;-53
2021/12/14 10:50:38;;;;;;;9.60;8.13;;;;;;;7.89;97.68;102104.88;4985592;28;20233;-53
2021/12/14 10:53:06;;;;;;;10.07;8.83;;;;;;;7.96;97.78;102101.63;4989417;28;20710;-54
2021/12/14 10:55:36;;;;;;;10.27;7.90;;;;;;;7.89;97.73;102089.19;4988084;28;20261;-53
2021/12/14 10:58:03;;;;;;;11.70;9.13;;;;;;;7.81;97.26;102088.94;4992633;28;20230;-50
2021/12/14 11:00:38;;;;;;;10.53;8.43;;;;;;;7.90;97.30;102090.97;4990657;28;20276;-49
2021/12/14 11:03:09;;;;;;;8.40;7.17;;;;;;;7.99;96.28;102087.75;4996685;28;20240;-51
2021/12/14 11:05:36;;;;;;;10.60;8.53;;;;;;;7.95;96.63;102089.38;4988480;28;20245;-51
2021/12/14 11:08:05;;;;;;;9.50;8.20;;;;;;;8.02;96.99;102085.25;4985815;28;20234;-53
2021/12/14 11:10:34;;;;;;;12.00;8.43;;;;;;;7.92;97.94;102084.06;4978361;28;20227;-52
2021/12/14 11:13:04;;;;;;;9.20;7.63;;;;;;;7.90;96.53;102085.75;4993700;28;20226;-51
2021/12/14 11:15:36;;;;;;;10.63;8.83;;;;;;;7.99;97.08;102095.59;4977958;28;20840;-53
2021/12/14 11:18:09;;;;;;;11.10;8.63;;;;;;;8.01;96.81;102089.59;4984666;28;20245;-51
2021/12/14 11:20:39;;;;;;;8.40;6.87;;;;;;;8.01;96.29;102091.31;4995949;28;20238;-51
2021/12/14 11:23:11;;;;;;;11.80;7.87;;;;;;;7.92;97.28;102089.28;4988588;28;20230;-52
2021/12/14 11:25:44;;;;;;;9.90;7.77;;;;;;;7.99;96.30;102086.03;4994834;28;20314;-51
2021/12/14 11:28:13;;;;;;;9.10;7.53;;;;;;;8.05;95.70;102074.88;4981699;28;20231;-51
2021/12/14 11:30:46;;;;;;;10.57;7.87;;;;;;;8.07;95.93;102084.56;4989435;28;20266;-50
2021/12/14 11:33:17;;;;;;;9.17;8.00;;;;;;;8.02;96.52;102075.66;4995615;28;20230;-53
2021/12/14 11:35:46;;;;;;;10.37;8.37;;;;;;;8.00;96.21;102082.59;5000670;28;20249;-50
2021/12/14 11:38:37;;;;;;;8.93;7.67;;;;;;;8.07;96.06;102074.09;4984415;28;20241;-52
2021/12/14 11:41:21;;;;;;;10.27;8.13;;;;;;;8.14;95.30;102064.69;4983882;28;20260;-52
2021/12/14 11:43:50;;;;;;;10.07;8.20;;;;;;;8.21;94.47;102063.13;4976709;28;20240;-51
2021/12/14 11:46:19;;;;;;;9.67;7.53;;;;;;;8.03;94.95;102066.97;4992179;28;20269;-52
2021/12/14 11:48:45;;;;;;;8.83;7.63;;;;;;;8.13;94.80;102079.50;4994012;28;20265;-52
2021/12/14 11:51:12;;;;;;;9.50;8.10;;;;;;;8.20;95.36;102077.06;5002126;28;20238;-52
2021/12/14 11:53:39;;;;;;;9.43;7.70;;;;;;;8.07;95.06;102086.25;5000607;28;20243;-53